Cliffside, North Carolina
Current Conditions -  °F | °C
As of 8:15 AM on Tuesday 21 Oct 2014 (Local Time) from KEHO Reporting Station
Haze Haze  
Wind Chill: 42°   Ceiling: Unl
Heat Index: 44°   Visibility: 4mi
Dew Point: 44°   Wind: 5mph
Humidity: 99%   Direction: 320°NW
Pressure: 29.96"   Gusts: NA
Location:  35.24°N, 81.77°W
Report Text: KEHO 211215Z AUTO 32004KT 4SM BR CLR 07/07 A2996 RMK AO2 T00690067
Loading
Personal Weather Stations






























Interactive Weather Map
Tropical Storm Tracking
New forecast layout! Learn more

10-Day Weather Forecast

Advertisements
Track Severe Weather on mobile